<?xml version="1.0"?>
<gpx xmlns="http://www.topografix.com/GPX/1/1" version="1.1" creator="afstandmeten.nl" xmlns:xsi="http://www.w3.org/2001/XMLSchema-instance" xsi:schemaLocation="http://www.topografix.com/GPX/1/1 http://www.topografix.com/GPX/1/1/gpx.xsd">
  <trk>
    <name>5km lenteloop 2026 verhard eerbeek</name>
    <desc/>
    <trkseg>
      <trkpt lat="52.091831" lon="6.0364884">
        <ele>0.00000</ele>
        <time>2025-12-05T00:00:00Z</time>
      </trkpt>
      <trkpt lat="52.091538" lon="6.036857">
        <ele>0.00000</ele>
        <time>2025-12-05T00:00:30Z</time>
      </trkpt>
      <trkpt lat="52.091163" lon="6.037117">
        <ele>0.00000</ele>
        <time>2025-12-05T00:01:02Z</time>
      </trkpt>
      <trkpt lat="52.091163" lon="6.037117">
        <ele>0.00000</ele>
        <time>2025-12-05T00:01:02Z</time>
      </trkpt>
      <trkpt lat="52.09075" lon="6.0371">
        <ele>0.00000</ele>
        <time>2025-12-05T00:01:35Z</time>
      </trkpt>
      <trkpt lat="52.090673" lon="6.037156">
        <ele>0.00000</ele>
        <time>2025-12-05T00:01:42Z</time>
      </trkpt>
      <trkpt lat="52.090621" lon="6.03737">
        <ele>0.00000</ele>
        <time>2025-12-05T00:01:53Z</time>
      </trkpt>
      <trkpt lat="52.090603" lon="6.037357">
        <ele>0.00000</ele>
        <time>2025-12-05T00:01:55Z</time>
      </trkpt>
      <trkpt lat="52.090603" lon="6.037357">
        <ele>0.00000</ele>
        <time>2025-12-05T00:01:55Z</time>
      </trkpt>
      <trkpt lat="52.09048" lon="6.037265">
        <ele>0.00000</ele>
        <time>2025-12-05T00:02:06Z</time>
      </trkpt>
      <trkpt lat="52.09048" lon="6.037265">
        <ele>0.00000</ele>
        <time>2025-12-05T00:02:06Z</time>
      </trkpt>
      <trkpt lat="52.089761" lon="6.03639">
        <ele>0.00000</ele>
        <time>2025-12-05T00:03:17Z</time>
      </trkpt>
      <trkpt lat="52.089527" lon="6.036215">
        <ele>0.00000</ele>
        <time>2025-12-05T00:03:38Z</time>
      </trkpt>
      <trkpt lat="52.089276" lon="6.036136">
        <ele>0.00000</ele>
        <time>2025-12-05T00:03:58Z</time>
      </trkpt>
      <trkpt lat="52.088894" lon="6.036149">
        <ele>0.00000</ele>
        <time>2025-12-05T00:04:28Z</time>
      </trkpt>
      <trkpt lat="52.088107" lon="6.035613">
        <ele>0.00000</ele>
        <time>2025-12-05T00:05:36Z</time>
      </trkpt>
      <trkpt lat="52.08621" lon="6.032288">
        <ele>0.00000</ele>
        <time>2025-12-05T00:09:18Z</time>
      </trkpt>
      <trkpt lat="52.086074" lon="6.031823">
        <ele>0.00000</ele>
        <time>2025-12-05T00:09:43Z</time>
      </trkpt>
      <trkpt lat="52.085815" lon="6.031413">
        <ele>0.00000</ele>
        <time>2025-12-05T00:10:12Z</time>
      </trkpt>
      <trkpt lat="52.085815" lon="6.031413">
        <ele>0.00000</ele>
        <time>2025-12-05T00:10:12Z</time>
      </trkpt>
      <trkpt lat="52.085738" lon="6.031377">
        <ele>0.00000</ele>
        <time>2025-12-05T00:10:18Z</time>
      </trkpt>
      <trkpt lat="52.085624" lon="6.031425">
        <ele>0.00000</ele>
        <time>2025-12-05T00:10:28Z</time>
      </trkpt>
      <trkpt lat="52.085371" lon="6.031788">
        <ele>0.00000</ele>
        <time>2025-12-05T00:10:55Z</time>
      </trkpt>
      <trkpt lat="52.08458" lon="6.032525">
        <ele>0.00000</ele>
        <time>2025-12-05T00:12:07Z</time>
      </trkpt>
      <trkpt lat="52.083526" lon="6.033601">
        <ele>0.00000</ele>
        <time>2025-12-05T00:13:46Z</time>
      </trkpt>
      <trkpt lat="52.083497" lon="6.033623">
        <ele>0.00000</ele>
        <time>2025-12-05T00:13:49Z</time>
      </trkpt>
      <trkpt lat="52.083433" lon="6.033488">
        <ele>0.00000</ele>
        <time>2025-12-05T00:13:57Z</time>
      </trkpt>
      <trkpt lat="52.083433" lon="6.033488">
        <ele>0.00000</ele>
        <time>2025-12-05T00:13:57Z</time>
      </trkpt>
      <trkpt lat="52.085907" lon="6.040174">
        <ele>0.00000</ele>
        <time>2025-12-05T00:20:19Z</time>
      </trkpt>
      <trkpt lat="52.088461" lon="6.044384">
        <ele>0.00000</ele>
        <time>2025-12-05T00:25:08Z</time>
      </trkpt>
      <trkpt lat="52.09143" lon="6.04828">
        <ele>0.00000</ele>
        <time>2025-12-05T00:30:12Z</time>
      </trkpt>
      <trkpt lat="52.09249" lon="6.05026">
        <ele>0.00000</ele>
        <time>2025-12-05T00:32:20Z</time>
      </trkpt>
      <trkpt lat="52.0946885" lon="6.0552478">
        <ele>0.00000</ele>
        <time>2025-12-05T00:37:20Z</time>
      </trkpt>
      <trkpt lat="52.0947676" lon="6.0553873">
        <ele>0.00000</ele>
        <time>2025-12-05T00:37:29Z</time>
      </trkpt>
      <trkpt lat="52.0948269" lon="6.0555053">
        <ele>0.00000</ele>
        <time>2025-12-05T00:37:37Z</time>
      </trkpt>
      <trkpt lat="52.094873" lon="6.0555804">
        <ele>0.00000</ele>
        <time>2025-12-05T00:37:42Z</time>
      </trkpt>
      <trkpt lat="52.0961385" lon="6.0533059">
        <ele>0.00000</ele>
        <time>2025-12-05T00:40:12Z</time>
      </trkpt>
      <trkpt lat="52.0958818" lon="6.0528821">
        <ele>0.00000</ele>
        <time>2025-12-05T00:40:41Z</time>
      </trkpt>
      <trkpt lat="52.0953809" lon="6.0520073">
        <ele>0.00000</ele>
        <time>2025-12-05T00:41:40Z</time>
      </trkpt>
      <trkpt lat="52.0933512" lon="6.0487462">
        <ele>0.00000</ele>
        <time>2025-12-05T00:45:27Z</time>
      </trkpt>
      <trkpt lat="52.094715" lon="6.046812">
        <ele>0.00000</ele>
        <time>2025-12-05T00:47:51Z</time>
      </trkpt>
      <trkpt lat="52.093335" lon="6.043799">
        <ele>0.00000</ele>
        <time>2025-12-05T00:50:54Z</time>
      </trkpt>
      <trkpt lat="52.092722" lon="6.042863">
        <ele>0.00000</ele>
        <time>2025-12-05T00:52:01Z</time>
      </trkpt>
      <trkpt lat="52.092333" lon="6.042112">
        <ele>0.00000</ele>
        <time>2025-12-05T00:52:49Z</time>
      </trkpt>
      <trkpt lat="52.092318" lon="6.041779">
        <ele>0.00000</ele>
        <time>2025-12-05T00:53:05Z</time>
      </trkpt>
      <trkpt lat="52.092503" lon="6.040695">
        <ele>0.00000</ele>
        <time>2025-12-05T00:54:01Z</time>
      </trkpt>
      <trkpt lat="52.092358" lon="6.039172">
        <ele>0.00000</ele>
        <time>2025-12-05T00:55:16Z</time>
      </trkpt>
      <trkpt lat="52.091359" lon="6.037972">
        <ele>0.00000</ele>
        <time>2025-12-05T00:56:55Z</time>
      </trkpt>
      <trkpt lat="52.090621" lon="6.03737">
        <ele>0.00000</ele>
        <time>2025-12-05T00:58:00Z</time>
      </trkpt>
      <trkpt lat="52.090646" lon="6.037231">
        <ele>0.00000</ele>
        <time>2025-12-05T00:58:07Z</time>
      </trkpt>
      <trkpt lat="52.090646" lon="6.037231">
        <ele>0.00000</ele>
        <time>2025-12-05T00:58:07Z</time>
      </trkpt>
      <trkpt lat="52.090673" lon="6.037156">
        <ele>0.00000</ele>
        <time>2025-12-05T00:58:12Z</time>
      </trkpt>
      <trkpt lat="52.09075" lon="6.0371">
        <ele>0.00000</ele>
        <time>2025-12-05T00:58:18Z</time>
      </trkpt>
      <trkpt lat="52.091142" lon="6.037132">
        <ele>0.00000</ele>
        <time>2025-12-05T00:58:50Z</time>
      </trkpt>
      <trkpt lat="52.09136" lon="6.037">
        <ele>0.00000</ele>
        <time>2025-12-05T00:59:08Z</time>
      </trkpt>
      <trkpt lat="52.091538" lon="6.036857">
        <ele>0.00000</ele>
        <time>2025-12-05T00:59:24Z</time>
      </trkpt>
      <trkpt lat="52.0918505" lon="6.0365115">
        <ele>0.00000</ele>
        <time>2025-12-05T00:59:54Z</time>
      </trkpt>
    </trkseg>
  </trk>
</gpx>

